sensor_id;sensor_type;location;lat;lon;timestamp;P1;durP1;ratioP1;P2;durP2;ratioP2
73437;SDS011;66471;56.532;21.020;2023-08-12T00:01:47;8.65;;;3.08;;
73437;SDS011;66471;56.532;21.020;2023-08-12T00:04:14;11.95;;;3.47;;
73437;SDS011;66471;56.532;21.020;2023-08-12T00:06:42;6.68;;;2.80;;
73437;SDS011;66471;56.532;21.020;2023-08-12T00:09:10;7.85;;;2.40;;
73437;SDS011;66471;56.532;21.020;2023-08-12T00:11:41;9.80;;;3.30;;
73437;SDS011;66471;56.532;21.020;2023-08-12T00:14:08;7.78;;;3.05;;
73437;SDS011;66471;56.532;21.020;2023-08-12T00:16:35;7.72;;;3.00;;
73437;SDS011;66471;56.532;21.020;2023-08-12T00:19:02;5.95;;;2.40;;
73437;SDS011;66471;56.532;21.020;2023-08-12T00:21:30;5.55;;;2.50;;
73437;SDS011;66471;56.532;21.020;2023-08-12T00:23:57;8.27;;;2.10;;
73437;SDS011;66471;56.532;21.020;2023-08-12T00:26:24;6.03;;;2.35;;
73437;SDS011;66471;56.532;21.020;2023-08-12T00:28:52;9.20;;;2.97;;
73437;SDS011;66471;56.532;21.020;2023-08-12T00:31:19;6.50;;;2.95;;
73437;SDS011;66471;56.532;21.020;2023-08-12T00:33:46;7.75;;;2.75;;
73437;SDS011;66471;56.532;21.020;2023-08-12T00:36:13;7.90;;;2.55;;
73437;SDS011;66471;56.532;21.020;2023-08-12T00:38:40;6.18;;;1.90;;
73437;SDS011;66471;56.532;21.020;2023-08-12T00:41:07;5.95;;;1.80;;
73437;SDS011;66471;56.532;21.020;2023-08-12T00:43:34;4.75;;;1.98;;
73437;SDS011;66471;56.532;21.020;2023-08-12T00:46:01;7.18;;;1.90;;
73437;SDS011;66471;56.532;21.020;2023-08-12T00:48:28;4.35;;;1.35;;
73437;SDS011;66471;56.532;21.020;2023-08-12T00:50:56;6.47;;;1.52;;
73437;SDS011;66471;56.532;21.020;2023-08-12T00:53:23;9.55;;;1.92;;
73437;SDS011;66471;56.532;21.020;2023-08-12T00:55:50;6.10;;;1.23;;
73437;SDS011;66471;56.532;21.020;2023-08-12T00:58:17;4.97;;;1.10;;
73437;SDS011;66471;56.532;21.020;2023-08-12T01:00:44;6.05;;;1.60;;
73437;SDS011;66471;56.532;21.020;2023-08-12T01:03:12;5.53;;;1.90;;
73437;SDS011;66471;56.532;21.020;2023-08-12T01:05:39;9.32;;;2.70;;
73437;SDS011;66471;56.532;21.020;2023-08-12T01:08:07;5.32;;;2.10;;
73437;SDS011;66471;56.532;21.020;2023-08-12T01:10:35;12.38;;;2.80;;
73437;SDS011;66471;56.532;21.020;2023-08-12T01:15:47;6.38;;;3.15;;
73437;SDS011;66471;56.532;21.020;2023-08-12T01:18:18;6.85;;;3.13;;
73437;SDS011;66471;56.532;21.020;2023-08-12T01:20:46;9.95;;;3.42;;
73437;SDS011;66471;56.532;21.020;2023-08-12T01:23:14;6.28;;;2.97;;
73437;SDS011;66471;56.532;21.020;2023-08-12T01:25:42;7.20;;;3.03;;
73437;SDS011;66471;56.532;21.020;2023-08-12T01:28:09;7.28;;;3.03;;
73437;SDS011;66471;56.532;21.020;2023-08-12T01:30:56;7.28;;;2.70;;
73437;SDS011;66471;56.532;21.020;2023-08-12T01:33:28;6.97;;;2.75;;
73437;SDS011;66471;56.532;21.020;2023-08-12T01:36:06;8.25;;;2.40;;
73437;SDS011;66471;56.532;21.020;2023-08-12T01:38:38;6.35;;;3.55;;
73437;SDS011;66471;56.532;21.020;2023-08-12T01:41:07;8.15;;;3.05;;
73437;SDS011;66471;56.532;21.020;2023-08-12T01:43:37;7.80;;;3.60;;
73437;SDS011;66471;56.532;21.020;2023-08-12T01:46:05;8.00;;;3.47;;
73437;SDS011;66471;56.532;21.020;2023-08-12T01:48:32;9.73;;;2.80;;
73437;SDS011;66471;56.532;21.020;2023-08-12T01:50:59;8.85;;;3.20;;
73437;SDS011;66471;56.532;21.020;2023-08-12T01:53:26;9.13;;;2.92;;
73437;SDS011;66471;56.532;21.020;2023-08-12T01:55:53;8.88;;;3.90;;
73437;SDS011;66471;56.532;21.020;2023-08-12T01:58:20;6.90;;;2.90;;
73437;SDS011;66471;56.532;21.020;2023-08-12T02:00:47;8.00;;;3.35;;
73437;SDS011;66471;56.532;21.020;2023-08-12T02:03:14;6.18;;;3.53;;
73437;SDS011;66471;56.532;21.020;2023-08-12T02:05:41;11.85;;;3.83;;
73437;SDS011;66471;56.532;21.020;2023-08-12T02:08:10;10.15;;;3.22;;
73437;SDS011;66471;56.532;21.020;2023-08-12T02:10:37;9.18;;;3.17;;
73437;SDS011;66471;56.532;21.020;2023-08-12T02:13:04;9.90;;;4.05;;
73437;SDS011;66471;56.532;21.020;2023-08-12T02:15:31;9.05;;;4.10;;
73437;SDS011;66471;56.532;21.020;2023-08-12T02:17:58;11.23;;;4.05;;
73437;SDS011;66471;56.532;21.020;2023-08-12T02:20:25;9.07;;;3.65;;
73437;SDS011;66471;56.532;21.020;2023-08-12T02:22:52;10.60;;;3.70;;
73437;SDS011;66471;56.532;21.020;2023-08-12T02:25:19;10.07;;;3.38;;
73437;SDS011;66471;56.532;21.020;2023-08-12T02:27:46;9.13;;;3.50;;
73437;SDS011;66471;56.532;21.020;2023-08-12T02:30:13;10.65;;;3.42;;
73437;SDS011;66471;56.532;21.020;2023-08-12T02:32:40;8.85;;;3.45;;
73437;SDS011;66471;56.532;21.020;2023-08-12T02:35:10;10.80;;;3.38;;
73437;SDS011;66471;56.532;21.020;2023-08-12T02:37:37;6.95;;;3.28;;
73437;SDS011;66471;56.532;21.020;2023-08-12T02:40:04;7.57;;;3.38;;
73437;SDS011;66471;56.532;21.020;2023-08-12T02:42:32;10.63;;;3.53;;
73437;SDS011;66471;56.532;21.020;2023-08-12T02:44:59;8.75;;;4.07;;
73437;SDS011;66471;56.532;21.020;2023-08-12T02:47:27;6.90;;;3.80;;
73437;SDS011;66471;56.532;21.020;2023-08-12T02:49:54;12.80;;;3.65;;
73437;SDS011;66471;56.532;21.020;2023-08-12T02:52:21;7.95;;;3.58;;
73437;SDS011;66471;56.532;21.020;2023-08-12T02:54:48;7.78;;;3.83;;
73437;SDS011;66471;56.532;21.020;2023-08-12T02:57:15;8.93;;;4.20;;
73437;SDS011;66471;56.532;21.020;2023-08-12T02:59:42;17.63;;;6.78;;
73437;SDS011;66471;56.532;21.020;2023-08-12T03:02:09;13.27;;;5.00;;
73437;SDS011;66471;56.532;21.020;2023-08-12T03:04:37;11.52;;;4.80;;
73437;SDS011;66471;56.532;21.020;2023-08-12T03:07:04;13.10;;;4.50;;
73437;SDS011;66471;56.532;21.020;2023-08-12T03:09:31;10.00;;;4.63;;
73437;SDS011;66471;56.532;21.020;2023-08-12T03:11:58;10.48;;;3.88;;
73437;SDS011;66471;56.532;21.020;2023-08-12T03:14:30;8.85;;;3.30;;
73437;SDS011;66471;56.532;21.020;2023-08-12T03:16:58;7.88;;;3.35;;
73437;SDS011;66471;56.532;21.020;2023-08-12T03:19:25;9.35;;;3.53;;
73437;SDS011;66471;56.532;21.020;2023-08-12T03:21:52;9.23;;;3.67;;
73437;SDS011;66471;56.532;21.020;2023-08-12T03:24:19;14.50;;;4.15;;
73437;SDS011;66471;56.532;21.020;2023-08-12T03:26:46;9.73;;;3.80;;
73437;SDS011;66471;56.532;21.020;2023-08-12T03:29:13;10.07;;;3.28;;
73437;SDS011;66471;56.532;21.020;2023-08-12T03:31:40;8.88;;;3.60;;
73437;SDS011;66471;56.532;21.020;2023-08-12T03:34:07;9.15;;;3.65;;
73437;SDS011;66471;56.532;21.020;2023-08-12T03:36:34;8.95;;;3.50;;
73437;SDS011;66471;56.532;21.020;2023-08-12T03:39:01;7.55;;;3.45;;
73437;SDS011;66471;56.532;21.020;2023-08-12T03:41:28;10.02;;;3.72;;
73437;SDS011;66471;56.532;21.020;2023-08-12T03:43:57;7.63;;;3.53;;
73437;SDS011;66471;56.532;21.020;2023-08-12T03:46:24;7.72;;;3.20;;
73437;SDS011;66471;56.532;21.020;2023-08-12T03:48:51;10.95;;;3.78;;
73437;SDS011;66471;56.532;21.020;2023-08-12T03:51:18;6.72;;;3.25;;
73437;SDS011;66471;56.532;21.020;2023-08-12T03:53:45;7.78;;;3.95;;
73437;SDS011;66471;56.532;21.020;2023-08-12T03:56:12;8.45;;;3.85;;
73437;SDS011;66471;56.532;21.020;2023-08-12T03:58:42;7.72;;;3.10;;
73437;SDS011;66471;56.532;21.020;2023-08-12T04:01:12;7.60;;;3.50;;
73437;SDS011;66471;56.532;21.020;2023-08-12T04:03:39;12.40;;;3.05;;
73437;SDS011;66471;56.532;21.020;2023-08-12T04:06:06;10.18;;;3.90;;
73437;SDS011;66471;56.532;21.020;2023-08-12T04:08:33;8.50;;;2.97;;
73437;SDS011;66471;56.532;21.020;2023-08-12T04:11:00;6.88;;;3.00;;
73437;SDS011;66471;56.532;21.020;2023-08-12T04:13:27;7.00;;;2.53;;
73437;SDS011;66471;56.532;21.020;2023-08-12T04:15:54;9.07;;;3.22;;
73437;SDS011;66471;56.532;21.020;2023-08-12T04:18:21;7.20;;;3.25;;
73437;SDS011;66471;56.532;21.020;2023-08-12T04:20:49;7.85;;;2.92;;
73437;SDS011;66471;56.532;21.020;2023-08-12T04:23:17;7.38;;;2.33;;
73437;SDS011;66471;56.532;21.020;2023-08-12T04:25:45;7.32;;;2.42;;
73437;SDS011;66471;56.532;21.020;2023-08-12T04:28:13;7.22;;;2.45;;
73437;SDS011;66471;56.532;21.020;2023-08-12T04:30:45;6.63;;;2.58;;
73437;SDS011;66471;56.532;21.020;2023-08-12T04:33:13;5.65;;;2.40;;
73437;SDS011;66471;56.532;21.020;2023-08-12T04:35:41;7.13;;;3.08;;
73437;SDS011;66471;56.532;21.020;2023-08-12T04:38:08;6.85;;;3.35;;
73437;SDS011;66471;56.532;21.020;2023-08-12T04:40:38;8.00;;;2.83;;
73437;SDS011;66471;56.532;21.020;2023-08-12T04:43:09;6.90;;;2.92;;
73437;SDS011;66471;56.532;21.020;2023-08-12T04:45:37;7.75;;;2.67;;
73437;SDS011;66471;56.532;21.020;2023-08-12T04:48:07;6.53;;;2.58;;
73437;SDS011;66471;56.532;21.020;2023-08-12T04:50:35;4.63;;;2.28;;
73437;SDS011;66471;56.532;21.020;2023-08-12T04:53:02;8.35;;;3.08;;
73437;SDS011;66471;56.532;21.020;2023-08-12T04:55:29;7.05;;;2.70;;
73437;SDS011;66471;56.532;21.020;2023-08-12T04:57:56;6.53;;;2.22;;
73437;SDS011;66471;56.532;21.020;2023-08-12T05:00:24;7.40;;;2.40;;
73437;SDS011;66471;56.532;21.020;2023-08-12T05:02:56;9.65;;;3.10;;
73437;SDS011;66471;56.532;21.020;2023-08-12T05:05:23;6.88;;;3.10;;
73437;SDS011;66471;56.532;21.020;2023-08-12T05:07:51;6.18;;;2.28;;
73437;SDS011;66471;56.532;21.020;2023-08-12T05:10:18;8.82;;;1.85;;
73437;SDS011;66471;56.532;21.020;2023-08-12T05:12:45;7.40;;;2.50;;
73437;SDS011;66471;56.532;21.020;2023-08-12T05:15:13;6.50;;;2.53;;
73437;SDS011;66471;56.532;21.020;2023-08-12T05:17:40;7.88;;;2.28;;
73437;SDS011;66471;56.532;21.020;2023-08-12T05:20:08;6.57;;;2.67;;
73437;SDS011;66471;56.532;21.020;2023-08-12T05:22:35;9.73;;;2.92;;
73437;SDS011;66471;56.532;21.020;2023-08-12T05:25:02;7.18;;;3.35;;
73437;SDS011;66471;56.532;21.020;2023-08-12T05:27:29;8.43;;;3.20;;
73437;SDS011;66471;56.532;21.020;2023-08-12T05:29:57;6.38;;;2.60;;
73437;SDS011;66471;56.532;21.020;2023-08-12T05:32:24;6.47;;;2.85;;
73437;SDS011;66471;56.532;21.020;2023-08-12T05:34:52;7.05;;;2.55;;
73437;SDS011;66471;56.532;21.020;2023-08-12T05:37:20;5.45;;;1.70;;
73437;SDS011;66471;56.532;21.020;2023-08-12T05:39:47;5.93;;;2.50;;
73437;SDS011;66471;56.532;21.020;2023-08-12T05:42:14;7.45;;;3.10;;
73437;SDS011;66471;56.532;21.020;2023-08-12T05:44:41;7.20;;;2.00;;
73437;SDS011;66471;56.532;21.020;2023-08-12T05:47:09;8.80;;;2.90;;
73437;SDS011;66471;56.532;21.020;2023-08-12T05:49:36;6.80;;;2.38;;
73437;SDS011;66471;56.532;21.020;2023-08-12T05:52:03;6.13;;;2.05;;
73437;SDS011;66471;56.532;21.020;2023-08-12T05:54:30;7.43;;;2.83;;
73437;SDS011;66471;56.532;21.020;2023-08-12T05:56:58;6.25;;;1.98;;
73437;SDS011;66471;56.532;21.020;2023-08-12T05:59:25;5.90;;;1.98;;
73437;SDS011;66471;56.532;21.020;2023-08-12T06:01:53;7.95;;;2.97;;
73437;SDS011;66471;56.532;21.020;2023-08-12T06:04:20;6.85;;;1.90;;
73437;SDS011;66471;56.532;21.020;2023-08-12T06:06:47;6.57;;;2.30;;
73437;SDS011;66471;56.532;21.020;2023-08-12T06:09:17;6.30;;;2.22;;
73437;SDS011;66471;56.532;21.020;2023-08-12T06:11:44;5.18;;;2.25;;
73437;SDS011;66471;56.532;21.020;2023-08-12T06:14:11;7.82;;;2.50;;
73437;SDS011;66471;56.532;21.020;2023-08-12T06:16:38;10.33;;;2.40;;
73437;SDS011;66471;56.532;21.020;2023-08-12T06:19:05;7.63;;;2.75;;
73437;SDS011;66471;56.532;21.020;2023-08-12T06:21:33;6.70;;;1.67;;
73437;SDS011;66471;56.532;21.020;2023-08-12T06:24:00;6.15;;;1.95;;
73437;SDS011;66471;56.532;21.020;2023-08-12T06:26:27;4.07;;;1.60;;
73437;SDS011;66471;56.532;21.020;2023-08-12T06:28:54;5.70;;;2.00;;
73437;SDS011;66471;56.532;21.020;2023-08-12T06:31:21;5.78;;;1.95;;
73437;SDS011;66471;56.532;21.020;2023-08-12T06:33:48;5.88;;;1.80;;
73437;SDS011;66471;56.532;21.020;2023-08-12T06:36:15;5.13;;;1.75;;
73437;SDS011;66471;56.532;21.020;2023-08-12T06:38:42;5.97;;;2.33;;
73437;SDS011;66471;56.532;21.020;2023-08-12T06:41:09;9.07;;;2.10;;
73437;SDS011;66471;56.532;21.020;2023-08-12T06:43:36;4.65;;;1.52;;
73437;SDS011;66471;56.532;21.020;2023-08-12T06:46:04;7.68;;;2.38;;
73437;SDS011;66471;56.532;21.020;2023-08-12T06:48:31;7.00;;;1.75;;
73437;SDS011;66471;56.532;21.020;2023-08-12T06:50:58;8.65;;;1.83;;
73437;SDS011;66471;56.532;21.020;2023-08-12T06:53:25;6.43;;;1.93;;
73437;SDS011;66471;56.532;21.020;2023-08-12T06:55:53;5.80;;;1.30;;
73437;SDS011;66471;56.532;21.020;2023-08-12T06:58:20;6.45;;;1.35;;
73437;SDS011;66471;56.532;21.020;2023-08-12T07:00:47;7.30;;;2.13;;
73437;SDS011;66471;56.532;21.020;2023-08-12T07:03:14;5.55;;;1.38;;
73437;SDS011;66471;56.532;21.020;2023-08-12T07:05:41;3.63;;;1.47;;
73437;SDS011;66471;56.532;21.020;2023-08-12T07:08:08;5.32;;;1.10;;
73437;SDS011;66471;56.532;21.020;2023-08-12T07:10:39;3.42;;;1.00;;
73437;SDS011;66471;56.532;21.020;2023-08-12T07:13:07;5.18;;;1.20;;
73437;SDS011;66471;56.532;21.020;2023-08-12T07:15:35;4.72;;;1.58;;
73437;SDS011;66471;56.532;21.020;2023-08-12T07:18:02;6.13;;;2.13;;
73437;SDS011;66471;56.532;21.020;2023-08-12T07:20:29;5.85;;;2.13;;
73437;SDS011;66471;56.532;21.020;2023-08-12T07:22:57;5.63;;;1.52;;
73437;SDS011;66471;56.532;21.020;2023-08-12T07:25:24;6.03;;;1.77;;
73437;SDS011;66471;56.532;21.020;2023-08-12T07:27:51;4.53;;;1.70;;
73437;SDS011;66471;56.532;21.020;2023-08-12T07:30:18;4.13;;;1.30;;
73437;SDS011;66471;56.532;21.020;2023-08-12T07:32:45;5.22;;;1.33;;
73437;SDS011;66471;56.532;21.020;2023-08-12T07:35:12;4.75;;;1.15;;
73437;SDS011;66471;56.532;21.020;2023-08-12T07:37:41;4.22;;;1.00;;
73437;SDS011;66471;56.532;21.020;2023-08-12T07:40:09;5.90;;;1.70;;
73437;SDS011;66471;56.532;21.020;2023-08-12T07:42:37;4.40;;;1.67;;
73437;SDS011;66471;56.532;21.020;2023-08-12T07:45:05;5.20;;;1.48;;
73437;SDS011;66471;56.532;21.020;2023-08-12T07:47:33;3.92;;;1.05;;
73437;SDS011;66471;56.532;21.020;2023-08-12T07:50:04;5.28;;;1.77;;
73437;SDS011;66471;56.532;21.020;2023-08-12T07:52:32;4.00;;;1.13;;
73437;SDS011;66471;56.532;21.020;2023-08-12T07:55:02;5.43;;;1.40;;
73437;SDS011;66471;56.532;21.020;2023-08-12T07:57:30;5.20;;;1.40;;
73437;SDS011;66471;56.532;21.020;2023-08-12T07:59:58;5.72;;;1.77;;
73437;SDS011;66471;56.532;21.020;2023-08-12T08:02:27;4.72;;;1.50;;
73437;SDS011;66471;56.532;21.020;2023-08-12T08:04:59;3.80;;;1.25;;
73437;SDS011;66471;56.532;21.020;2023-08-12T08:07:27;6.07;;;1.70;;
73437;SDS011;66471;56.532;21.020;2023-08-12T08:09:55;4.70;;;1.60;;
73437;SDS011;66471;56.532;21.020;2023-08-12T08:12:28;5.35;;;1.27;;
73437;SDS011;66471;56.532;21.020;2023-08-12T08:14:56;4.68;;;1.50;;
73437;SDS011;66471;56.532;21.020;2023-08-12T08:17:24;4.97;;;1.70;;
73437;SDS011;66471;56.532;21.020;2023-08-12T08:19:52;3.67;;;1.40;;
73437;SDS011;66471;56.532;21.020;2023-08-12T08:22:19;3.67;;;1.30;;
73437;SDS011;66471;56.532;21.020;2023-08-12T08:24:48;4.65;;;1.08;;
73437;SDS011;66471;56.532;21.020;2023-08-12T08:27:16;5.53;;;1.60;;
73437;SDS011;66471;56.532;21.020;2023-08-12T08:29:46;5.35;;;1.75;;
73437;SDS011;66471;56.532;21.020;2023-08-12T08:32:16;3.40;;;1.17;;
73437;SDS011;66471;56.532;21.020;2023-08-12T08:34:43;6.20;;;1.98;;
73437;SDS011;66471;56.532;21.020;2023-08-12T08:37:14;6.43;;;1.40;;
73437;SDS011;66471;56.532;21.020;2023-08-12T08:39:41;4.25;;;1.80;;
73437;SDS011;66471;56.532;21.020;2023-08-12T08:42:11;5.57;;;2.05;;
73437;SDS011;66471;56.532;21.020;2023-08-12T16:26:00;6.30;;;2.10;;
73437;SDS011;66471;56.532;21.020;2023-08-12T16:28:27;5.68;;;1.85;;
73437;SDS011;66471;56.532;21.020;2023-08-12T16:30:54;5.13;;;2.25;;
73437;SDS011;66471;56.532;21.020;2023-08-12T16:33:21;4.45;;;2.20;;
73437;SDS011;66471;56.532;21.020;2023-08-12T16:35:48;7.20;;;2.97;;
73437;SDS011;66471;56.532;21.020;2023-08-12T16:38:16;6.90;;;3.08;;
73437;SDS011;66471;56.532;21.020;2023-08-12T16:40:43;5.18;;;1.70;;
73437;SDS011;66471;56.532;21.020;2023-08-12T16:43:10;4.18;;;1.50;;
73437;SDS011;66471;56.532;21.020;2023-08-12T16:45:38;7.57;;;3.35;;
73437;SDS011;66471;56.532;21.020;2023-08-12T16:48:05;9.17;;;2.30;;
73437;SDS011;66471;56.532;21.020;2023-08-12T16:50:33;6.25;;;2.40;;
73437;SDS011;66471;56.532;21.020;2023-08-12T16:53:00;5.93;;;2.17;;
73437;SDS011;66471;56.532;21.020;2023-08-12T16:55:28;9.57;;;3.15;;
73437;SDS011;66471;56.532;21.020;2023-08-12T16:57:55;6.95;;;1.90;;
73437;SDS011;66471;56.532;21.020;2023-08-12T17:00:23;6.23;;;1.77;;
73437;SDS011;66471;56.532;21.020;2023-08-12T17:02:50;6.75;;;2.20;;
73437;SDS011;66471;56.532;21.020;2023-08-12T17:05:17;5.18;;;1.98;;
73437;SDS011;66471;56.532;21.020;2023-08-12T17:07:44;7.38;;;2.30;;
73437;SDS011;66471;56.532;21.020;2023-08-12T17:10:12;5.38;;;2.38;;
73437;SDS011;66471;56.532;21.020;2023-08-12T17:12:39;7.83;;;2.10;;
73437;SDS011;66471;56.532;21.020;2023-08-12T17:15:07;8.77;;;2.90;;
73437;SDS011;66471;56.532;21.020;2023-08-12T17:17:34;7.28;;;2.78;;
73437;SDS011;66471;56.532;21.020;2023-08-12T17:20:02;6.60;;;2.92;;
73437;SDS011;66471;56.532;21.020;2023-08-12T17:22:30;7.32;;;2.95;;
73437;SDS011;66471;56.532;21.020;2023-08-12T17:25:04;8.20;;;3.20;;
73437;SDS011;66471;56.532;21.020;2023-08-12T17:27:35;9.38;;;4.15;;
73437;SDS011;66471;56.532;21.020;2023-08-12T17:30:02;12.20;;;3.80;;
73437;SDS011;66471;56.532;21.020;2023-08-12T17:32:30;9.77;;;3.83;;
73437;SDS011;66471;56.532;21.020;2023-08-12T17:34:57;12.25;;;5.43;;
73437;SDS011;66471;56.532;21.020;2023-08-12T17:37:24;12.53;;;5.80;;
73437;SDS011;66471;56.532;21.020;2023-08-12T17:39:51;10.68;;;3.88;;
73437;SDS011;66471;56.532;21.020;2023-08-12T17:42:18;12.27;;;4.60;;
73437;SDS011;66471;56.532;21.020;2023-08-12T17:44:49;7.60;;;3.53;;
73437;SDS011;66471;56.532;21.020;2023-08-12T17:47:16;6.53;;;2.38;;
73437;SDS011;66471;56.532;21.020;2023-08-12T17:49:44;7.13;;;2.97;;
73437;SDS011;66471;56.532;21.020;2023-08-12T17:52:11;7.63;;;2.33;;
73437;SDS011;66471;56.532;21.020;2023-08-12T17:54:40;8.25;;;2.58;;
73437;SDS011;66471;56.532;21.020;2023-08-12T17:57:07;5.93;;;2.10;;
73437;SDS011;66471;56.532;21.020;2023-08-12T17:59:34;6.80;;;2.03;;
73437;SDS011;66471;56.532;21.020;2023-08-12T18:02:01;5.80;;;2.70;;
73437;SDS011;66471;56.532;21.020;2023-08-12T18:04:29;5.75;;;2.30;;
73437;SDS011;66471;56.532;21.020;2023-08-12T18:06:56;7.28;;;2.75;;
73437;SDS011;66471;56.532;21.020;2023-08-12T18:09:23;5.35;;;2.55;;
73437;SDS011;66471;56.532;21.020;2023-08-12T18:11:50;5.43;;;2.35;;
73437;SDS011;66471;56.532;21.020;2023-08-12T18:14:20;6.83;;;2.67;;
73437;SDS011;66471;56.532;21.020;2023-08-12T18:16:48;6.22;;;3.08;;
73437;SDS011;66471;56.532;21.020;2023-08-12T18:19:15;7.85;;;3.90;;
73437;SDS011;66471;56.532;21.020;2023-08-12T18:21:42;7.63;;;2.90;;
73437;SDS011;66471;56.532;21.020;2023-08-12T18:24:09;8.40;;;2.65;;
73437;SDS011;66471;56.532;21.020;2023-08-12T18:26:39;7.20;;;2.60;;
73437;SDS011;66471;56.532;21.020;2023-08-12T18:29:06;7.35;;;2.47;;
73437;SDS011;66471;56.532;21.020;2023-08-12T18:31:33;7.72;;;2.53;;
73437;SDS011;66471;56.532;21.020;2023-08-12T18:34:02;6.05;;;2.40;;
73437;SDS011;66471;56.532;21.020;2023-08-12T18:36:30;10.23;;;3.13;;
73437;SDS011;66471;56.532;21.020;2023-08-12T18:38:57;10.30;;;3.13;;
73437;SDS011;66471;56.532;21.020;2023-08-12T18:41:24;11.52;;;3.67;;
73437;SDS011;66471;56.532;21.020;2023-08-12T18:43:52;15.40;;;4.03;;
73437;SDS011;66471;56.532;21.020;2023-08-12T18:46:19;18.55;;;4.28;;
73437;SDS011;66471;56.532;21.020;2023-08-12T18:48:46;20.85;;;3.53;;
73437;SDS011;66471;56.532;21.020;2023-08-12T18:51:13;21.17;;;3.60;;
73437;SDS011;66471;56.532;21.020;2023-08-12T18:53:40;16.33;;;4.40;;
73437;SDS011;66471;56.532;21.020;2023-08-12T18:56:08;25.10;;;5.03;;
73437;SDS011;66471;56.532;21.020;2023-08-12T18:58:35;19.17;;;4.72;;
73437;SDS011;66471;56.532;21.020;2023-08-12T19:01:02;15.85;;;4.15;;
73437;SDS011;66471;56.532;21.020;2023-08-12T19:03:29;21.30;;;4.73;;
73437;SDS011;66471;56.532;21.020;2023-08-12T19:05:57;16.17;;;5.25;;
73437;SDS011;66471;56.532;21.020;2023-08-12T19:08:25;16.80;;;6.55;;
73437;SDS011;66471;56.532;21.020;2023-08-12T19:10:53;12.32;;;6.68;;
73437;SDS011;66471;56.532;21.020;2023-08-12T19:13:22;17.20;;;6.50;;
73437;SDS011;66471;56.532;21.020;2023-08-12T19:15:52;14.80;;;5.93;;
73437;SDS011;66471;56.532;21.020;2023-08-12T19:18:21;19.77;;;6.95;;
73437;SDS011;66471;56.532;21.020;2023-08-12T19:20:49;15.05;;;6.13;;
73437;SDS011;66471;56.532;21.020;2023-08-12T19:23:18;19.65;;;6.32;;
73437;SDS011;66471;56.532;21.020;2023-08-12T19:25:46;18.60;;;6.53;;
73437;SDS011;66471;56.532;21.020;2023-08-12T19:28:15;14.80;;;4.90;;
73437;SDS011;66471;56.532;21.020;2023-08-12T19:30:44;16.88;;;5.07;;
73437;SDS011;66471;56.532;21.020;2023-08-12T19:33:17;12.57;;;5.10;;
73437;SDS011;66471;56.532;21.020;2023-08-12T19:35:45;13.40;;;4.90;;
73437;SDS011;66471;56.532;21.020;2023-08-12T19:38:13;16.00;;;6.78;;
73437;SDS011;66471;56.532;21.020;2023-08-12T19:40:41;10.60;;;4.97;;
73437;SDS011;66471;56.532;21.020;2023-08-12T19:43:09;12.20;;;5.38;;
73437;SDS011;66471;56.532;21.020;2023-08-12T19:45:36;13.60;;;5.22;;
73437;SDS011;66471;56.532;21.020;2023-08-12T19:48:04;14.57;;;4.88;;
73437;SDS011;66471;56.532;21.020;2023-08-12T19:50:31;12.20;;;5.78;;
73437;SDS011;66471;56.532;21.020;2023-08-12T19:52:59;12.37;;;5.47;;
73437;SDS011;66471;56.532;21.020;2023-08-12T19:55:27;15.77;;;6.60;;
73437;SDS011;66471;56.532;21.020;2023-08-12T19:57:54;13.32;;;7.22;;
73437;SDS011;66471;56.532;21.020;2023-08-12T20:00:24;18.95;;;8.20;;
73437;SDS011;66471;56.532;21.020;2023-08-12T20:02:52;18.17;;;7.18;;
73437;SDS011;66471;56.532;21.020;2023-08-12T20:05:22;16.93;;;7.97;;
73437;SDS011;66471;56.532;21.020;2023-08-12T20:07:49;23.15;;;10.07;;
73437;SDS011;66471;56.532;21.020;2023-08-12T20:10:18;19.88;;;9.82;;
73437;SDS011;66471;56.532;21.020;2023-08-12T20:12:46;23.17;;;9.85;;
73437;SDS011;66471;56.532;21.020;2023-08-12T20:15:14;19.05;;;9.30;;
73437;SDS011;66471;56.532;21.020;2023-08-12T20:17:42;20.50;;;10.07;;
73437;SDS011;66471;56.532;21.020;2023-08-12T20:20:10;23.23;;;9.00;;
73437;SDS011;66471;56.532;21.020;2023-08-12T20:22:39;20.58;;;10.23;;
73437;SDS011;66471;56.532;21.020;2023-08-12T20:25:28;23.20;;;10.52;;
73437;SDS011;66471;56.532;21.020;2023-08-12T20:27:59;23.70;;;10.88;;
73437;SDS011;66471;56.532;21.020;2023-08-12T20:30:26;22.33;;;9.70;;
73437;SDS011;66471;56.532;21.020;2023-08-12T20:32:54;25.00;;;11.13;;
73437;SDS011;66471;56.532;21.020;2023-08-12T20:35:21;19.65;;;10.25;;
73437;SDS011;66471;56.532;21.020;2023-08-12T20:37:49;24.73;;;11.80;;
73437;SDS011;66471;56.532;21.020;2023-08-12T20:40:18;22.13;;;10.57;;
73437;SDS011;66471;56.532;21.020;2023-08-12T20:42:45;23.77;;;10.27;;
73437;SDS011;66471;56.532;21.020;2023-08-12T20:45:13;21.25;;;11.18;;
73437;SDS011;66471;56.532;21.020;2023-08-12T20:47:41;31.77;;;12.60;;
73437;SDS011;66471;56.532;21.020;2023-08-12T20:50:08;20.80;;;10.35;;
73437;SDS011;66471;56.532;21.020;2023-08-12T20:52:35;21.48;;;12.27;;
73437;SDS011;66471;56.532;21.020;2023-08-12T20:55:03;22.83;;;11.27;;
73437;SDS011;66471;56.532;21.020;2023-08-12T20:57:30;23.55;;;13.02;;
73437;SDS011;66471;56.532;21.020;2023-08-12T20:59:57;24.88;;;13.60;;
73437;SDS011;66471;56.532;21.020;2023-08-12T21:02:28;24.08;;;12.82;;
73437;SDS011;66471;56.532;21.020;2023-08-12T21:04:56;26.25;;;13.55;;
73437;SDS011;66471;56.532;21.020;2023-08-12T21:07:23;25.83;;;13.67;;
73437;SDS011;66471;56.532;21.020;2023-08-12T21:09:50;25.77;;;13.25;;
73437;SDS011;66471;56.532;21.020;2023-08-12T21:12:17;23.63;;;14.23;;
73437;SDS011;66471;56.532;21.020;2023-08-12T21:14:44;24.27;;;13.57;;
73437;SDS011;66471;56.532;21.020;2023-08-12T21:17:11;28.10;;;14.77;;
73437;SDS011;66471;56.532;21.020;2023-08-12T21:19:43;24.23;;;13.17;;
73437;SDS011;66471;56.532;21.020;2023-08-12T21:22:10;25.38;;;13.70;;
73437;SDS011;66471;56.532;21.020;2023-08-12T21:24:39;24.67;;;12.70;;
73437;SDS011;66471;56.532;21.020;2023-08-12T21:27:06;17.40;;;9.20;;
73437;SDS011;66471;56.532;21.020;2023-08-12T21:29:33;19.25;;;9.82;;
73437;SDS011;66471;56.532;21.020;2023-08-12T21:32:00;23.87;;;7.87;;
73437;SDS011;66471;56.532;21.020;2023-08-12T21:34:27;18.00;;;9.00;;
73437;SDS011;66471;56.532;21.020;2023-08-12T21:36:54;15.18;;;8.45;;
73437;SDS011;66471;56.532;21.020;2023-08-12T21:39:21;15.40;;;8.43;;
73437;SDS011;66471;56.532;21.020;2023-08-12T21:41:48;16.38;;;8.40;;
73437;SDS011;66471;56.532;21.020;2023-08-12T21:44:16;15.13;;;7.43;;
73437;SDS011;66471;56.532;21.020;2023-08-12T21:46:43;18.50;;;9.35;;
73437;SDS011;66471;56.532;21.020;2023-08-12T21:49:10;18.23;;;8.43;;
73437;SDS011;66471;56.532;21.020;2023-08-12T21:51:37;15.10;;;5.80;;
73437;SDS011;66471;56.532;21.020;2023-08-12T21:54:04;12.65;;;7.00;;
73437;SDS011;66471;56.532;21.020;2023-08-12T21:56:31;13.30;;;6.27;;
73437;SDS011;66471;56.532;21.020;2023-08-12T21:58:58;14.00;;;5.65;;
73437;SDS011;66471;56.532;21.020;2023-08-12T22:01:25;13.82;;;5.75;;
73437;SDS011;66471;56.532;21.020;2023-08-12T22:03:52;13.23;;;6.32;;
73437;SDS011;66471;56.532;21.020;2023-08-12T22:06:19;12.57;;;5.50;;
73437;SDS011;66471;56.532;21.020;2023-08-12T22:08:46;11.13;;;4.87;;
73437;SDS011;66471;56.532;21.020;2023-08-12T22:11:13;11.23;;;5.57;;
73437;SDS011;66471;56.532;21.020;2023-08-12T22:13:40;10.90;;;4.65;;
73437;SDS011;66471;56.532;21.020;2023-08-12T22:16:07;9.35;;;4.80;;